sensor_id;sensor_type;location;lat;lon;timestamp;temperature;humidity
1091;DHT22;534;48.704;9.122;2023-04-29T04:02:00;14.10;83.90
1091;DHT22;534;48.704;9.122;2023-04-29T04:04:26;14.10;84.30
1091;DHT22;534;48.704;9.122;2023-04-29T04:06:53;14.20;84.20
1091;DHT22;534;48.704;9.122;2023-04-29T04:09:20;14.20;84.00
1091;DHT22;534;48.704;9.122;2023-04-29T04:11:46;14.20;83.80
1091;DHT22;534;48.704;9.122;2023-04-29T04:14:13;14.20;83.50
1091;DHT22;534;48.704;9.122;2023-04-29T04:16:40;14.20;83.20
1091;DHT22;534;48.704;9.122;2023-04-29T04:19:08;14.20;83.10
1091;DHT22;534;48.704;9.122;2023-04-29T04:21:35;14.20;83.30
1091;DHT22;534;48.704;9.122;2023-04-29T04:24:02;14.20;82.90
1091;DHT22;534;48.704;9.122;2023-04-29T04:26:28;14.20;82.80
1091;DHT22;534;48.704;9.122;2023-04-29T04:28:55;14.20;82.90
1091;DHT22;534;48.704;9.122;2023-04-29T04:31:22;14.30;82.70
1091;DHT22;534;48.704;9.122;2023-04-29T04:33:48;14.30;82.40
1091;DHT22;534;48.704;9.122;2023-04-29T04:36:16;14.30;82.10
1091;DHT22;534;48.704;9.122;2023-04-29T04:38:43;14.30;82.20
1091;DHT22;534;48.704;9.122;2023-04-29T04:41:10;14.30;82.20
1091;DHT22;534;48.704;9.122;2023-04-29T04:43:37;14.30;82.10
1091;DHT22;534;48.704;9.122;2023-04-29T04:46:09;14.40;82.20
1091;DHT22;534;48.704;9.122;2023-04-29T04:48:36;14.40;82.40
1091;DHT22;534;48.704;9.122;2023-04-29T04:51:07;14.40;82.40
1091;DHT22;534;48.704;9.122;2023-04-29T04:53:34;14.50;82.70
1091;DHT22;534;48.704;9.122;2023-04-29T04:56:01;14.60;82.70
1091;DHT22;534;48.704;9.122;2023-04-29T04:58:28;14.70;82.60
1091;DHT22;534;48.704;9.122;2023-04-29T05:00:56;14.80;82.40
1091;DHT22;534;48.704;9.122;2023-04-29T05:03:22;14.90;82.40
1091;DHT22;534;48.704;9.122;2023-04-29T05:05:52;15.10;82.30
1091;DHT22;534;48.704;9.122;2023-04-29T05:08:19;15.20;82.20
1091;DHT22;534;48.704;9.122;2023-04-29T05:10:47;15.30;82.30
1091;DHT22;534;48.704;9.122;2023-04-29T05:13:14;15.40;82.40
1091;DHT22;534;48.704;9.122;2023-04-29T05:15:41;15.60;82.20
1091;DHT22;534;48.704;9.122;2023-04-29T05:18:08;15.70;82.00
1091;DHT22;534;48.704;9.122;2023-04-29T05:20:35;15.80;81.80
1091;DHT22;534;48.704;9.122;2023-04-29T05:23:02;16.00;81.80
1091;DHT22;534;48.704;9.122;2023-04-29T05:25:29;16.10;81.50
1091;DHT22;534;48.704;9.122;2023-04-29T05:27:57;16.20;81.00
1091;DHT22;534;48.704;9.122;2023-04-29T05:30:24;16.30;81.20
1091;DHT22;534;48.704;9.122;2023-04-29T05:32:51;16.50;80.80
1091;DHT22;534;48.704;9.122;2023-04-29T05:35:18;16.60;80.40
1091;DHT22;534;48.704;9.122;2023-04-29T05:37:44;16.70;79.70
1091;DHT22;534;48.704;9.122;2023-04-29T05:40:11;16.80;79.10
1091;DHT22;534;48.704;9.122;2023-04-29T05:42:38;16.70;78.70
1091;DHT22;534;48.704;9.122;2023-04-29T05:45:07;16.70;78.40
1091;DHT22;534;48.704;9.122;2023-04-29T05:47:34;16.60;78.70
1091;DHT22;534;48.704;9.122;2023-04-29T05:50:01;16.50;79.10
1091;DHT22;534;48.704;9.122;2023-04-29T05:52:28;16.50;79.50
1091;DHT22;534;48.704;9.122;2023-04-29T05:54:55;16.60;79.90
1091;DHT22;534;48.704;9.122;2023-04-29T05:57:22;16.80;80.00
1091;DHT22;534;48.704;9.122;2023-04-29T05:59:48;16.80;79.90
1091;DHT22;534;48.704;9.122;2023-04-29T06:02:16;16.80;79.50
1091;DHT22;534;48.704;9.122;2023-04-29T06:04:43;17.00;79.10
1091;DHT22;534;48.704;9.122;2023-04-29T06:07:12;17.00;78.90
1091;DHT22;534;48.704;9.122;2023-04-29T06:09:39;17.00;78.70
1091;DHT22;534;48.704;9.122;2023-04-29T06:12:07;17.10;78.50
1091;DHT22;534;48.704;9.122;2023-04-29T06:14:33;17.40;78.60
1091;DHT22;534;48.704;9.122;2023-04-29T06:17:00;17.60;77.10
1091;DHT22;534;48.704;9.122;2023-04-29T06:19:29;17.70;76.20
1091;DHT22;534;48.704;9.122;2023-04-29T06:21:57;18.00;76.10
1091;DHT22;534;48.704;9.122;2023-04-29T06:24:24;18.20;74.80
1091;DHT22;534;48.704;9.122;2023-04-29T06:26:51;18.20;75.40
1091;DHT22;534;48.704;9.122;2023-04-29T06:29:17;18.30;74.10
1091;DHT22;534;48.704;9.122;2023-04-29T06:31:44;17.90;74.50
1091;DHT22;534;48.704;9.122;2023-04-29T06:34:10;17.70;75.50
1091;DHT22;534;48.704;9.122;2023-04-29T06:36:39;17.80;75.50
1091;DHT22;534;48.704;9.122;2023-04-29T06:39:06;17.80;75.80
1091;DHT22;534;48.704;9.122;2023-04-29T06:41:33;17.90;76.30
1091;DHT22;534;48.704;9.122;2023-04-29T06:44:01;17.90;75.90
1091;DHT22;534;48.704;9.122;2023-04-29T06:46:28;17.60;76.20
1091;DHT22;534;48.704;9.122;2023-04-29T06:48:54;17.60;75.60
1091;DHT22;534;48.704;9.122;2023-04-29T06:51:21;17.30;75.80
1091;DHT22;534;48.704;9.122;2023-04-29T06:53:50;17.10;76.90
1091;DHT22;534;48.704;9.122;2023-04-29T06:56:17;17.00;77.60
1091;DHT22;534;48.704;9.122;2023-04-29T06:58:44;17.10;77.20
1091;DHT22;534;48.704;9.122;2023-04-29T07:01:10;17.30;76.20
1091;DHT22;534;48.704;9.122;2023-04-29T07:03:37;17.40;76.10
1091;DHT22;534;48.704;9.122;2023-04-29T07:06:04;17.50;75.20
1091;DHT22;534;48.704;9.122;2023-04-29T07:08:31;17.40;75.10
1091;DHT22;534;48.704;9.122;2023-04-29T07:10:59;17.40;74.60
1091;DHT22;534;48.704;9.122;2023-04-29T07:13:25;17.20;74.60
1091;DHT22;534;48.704;9.122;2023-04-29T07:15:52;17.20;74.80
1091;DHT22;534;48.704;9.122;2023-04-29T07:18:18;17.30;75.20
1091;DHT22;534;48.704;9.122;2023-04-29T07:20:45;17.30;74.60
1091;DHT22;534;48.704;9.122;2023-04-29T07:23:12;17.40;75.60
1091;DHT22;534;48.704;9.122;2023-04-29T07:25:39;17.70;74.30
1091;DHT22;534;48.704;9.122;2023-04-29T07:28:07;17.90;73.40
1091;DHT22;534;48.704;9.122;2023-04-29T07:30:34;18.00;72.40
1091;DHT22;534;48.704;9.122;2023-04-29T07:33:01;18.30;69.70
1091;DHT22;534;48.704;9.122;2023-04-29T07:35:28;18.40;69.80
1091;DHT22;534;48.704;9.122;2023-04-29T07:37:55;18.60;69.70
1091;DHT22;534;48.704;9.122;2023-04-29T07:40:22;18.70;68.70
1091;DHT22;534;48.704;9.122;2023-04-29T07:42:49;19.00;66.90
1091;DHT22;534;48.704;9.122;2023-04-29T07:45:17;19.20;67.70
1091;DHT22;534;48.704;9.122;2023-04-29T07:47:43;19.30;67.00
1091;DHT22;534;48.704;9.122;2023-04-29T07:50:11;19.20;67.00
1091;DHT22;534;48.704;9.122;2023-04-29T07:52:38;19.20;67.50
1091;DHT22;534;48.704;9.122;2023-04-29T07:55:05;19.20;67.50
1091;DHT22;534;48.704;9.122;2023-04-29T07:57:32;18.90;67.80
1091;DHT22;534;48.704;9.122;2023-04-29T07:59:58;18.60;68.80
1091;DHT22;534;48.704;9.122;2023-04-29T08:02:26;18.40;70.10
1091;DHT22;534;48.704;9.122;2023-04-29T08:04:53;18.30;70.20
1091;DHT22;534;48.704;9.122;2023-04-29T08:07:20;18.10;70.60
1091;DHT22;534;48.704;9.122;2023-04-29T08:09:46;17.80;71.50
1091;DHT22;534;48.704;9.122;2023-04-29T08:12:13;17.90;71.60
1091;DHT22;534;48.704;9.122;2023-04-29T08:14:40;17.80;72.20
1091;DHT22;534;48.704;9.122;2023-04-29T08:17:06;17.80;71.30
1091;DHT22;534;48.704;9.122;2023-04-29T08:19:34;17.70;71.30
1091;DHT22;534;48.704;9.122;2023-04-29T08:22:01;17.70;71.80
1091;DHT22;534;48.704;9.122;2023-04-29T08:24:28;17.80;71.20
1091;DHT22;534;48.704;9.122;2023-04-29T08:26:55;17.90;70.90
1091;DHT22;534;48.704;9.122;2023-04-29T08:29:23;18.00;71.10
1091;DHT22;534;48.704;9.122;2023-04-29T08:31:50;18.10;69.60
1091;DHT22;534;48.704;9.122;2023-04-29T08:34:17;18.20;68.40
1091;DHT22;534;48.704;9.122;2023-04-29T08:36:45;18.20;68.80
1091;DHT22;534;48.704;9.122;2023-04-29T08:39:12;18.20;68.50
1091;DHT22;534;48.704;9.122;2023-04-29T08:41:38;18.20;68.40
1091;DHT22;534;48.704;9.122;2023-04-29T08:44:05;18.30;69.20
1091;DHT22;534;48.704;9.122;2023-04-29T08:46:32;18.40;68.90
1091;DHT22;534;48.704;9.122;2023-04-29T08:49:02;18.30;68.80
1091;DHT22;534;48.704;9.122;2023-04-29T08:51:29;18.30;68.80
1091;DHT22;534;48.704;9.122;2023-04-29T08:53:59;18.30;69.50
1091;DHT22;534;48.704;9.122;2023-04-29T08:56:25;18.40;68.70
1091;DHT22;534;48.704;9.122;2023-04-29T08:58:54;18.50;68.40
1091;DHT22;534;48.704;9.122;2023-04-29T09:01:25;18.40;68.50
1091;DHT22;534;48.704;9.122;2023-04-29T09:06:37;18.50;67.70
1091;DHT22;534;48.704;9.122;2023-04-29T09:09:05;18.60;68.70
1091;DHT22;534;48.704;9.122;2023-04-29T09:11:32;18.80;67.80
1091;DHT22;534;48.704;9.122;2023-04-29T09:14:00;18.70;69.20
1091;DHT22;534;48.704;9.122;2023-04-29T09:16:29;18.90;69.20
1091;DHT22;534;48.704;9.122;2023-04-29T09:18:56;19.00;67.90
1091;DHT22;534;48.704;9.122;2023-04-29T09:21:24;19.00;67.70
1091;DHT22;534;48.704;9.122;2023-04-29T09:23:53;18.90;68.00
1091;DHT22;534;48.704;9.122;2023-04-29T09:26:22;19.00;68.20
1091;DHT22;534;48.704;9.122;2023-04-29T09:29:05;19.20;68.50
1091;DHT22;534;48.704;9.122;2023-04-29T09:31:33;19.30;68.10
1091;DHT22;534;48.704;9.122;2023-04-29T09:33:59;19.30;69.40
1091;DHT22;534;48.704;9.122;2023-04-29T09:36:37;19.40;68.50
1091;DHT22;534;48.704;9.122;2023-04-29T09:39:05;19.40;68.30
1091;DHT22;534;48.704;9.122;2023-04-29T09:41:38;19.40;68.30
1091;DHT22;534;48.704;9.122;2023-04-29T09:44:05;19.40;70.00
1091;DHT22;534;48.704;9.122;2023-04-29T09:46:32;19.40;69.10
1091;DHT22;534;48.704;9.122;2023-04-29T09:48:59;19.40;69.70
1091;DHT22;534;48.704;9.122;2023-04-29T09:51:26;19.50;68.40
1091;DHT22;534;48.704;9.122;2023-04-29T09:53:53;19.30;68.10
1091;DHT22;534;48.704;9.122;2023-04-29T09:56:19;19.30;68.70
1091;DHT22;534;48.704;9.122;2023-04-29T09:58:48;19.50;69.50
1091;DHT22;534;48.704;9.122;2023-04-29T10:01:15;19.70;68.90
1091;DHT22;534;48.704;9.122;2023-04-29T10:03:46;19.80;67.80
1091;DHT22;534;48.704;9.122;2023-04-29T10:06:16;19.70;68.70
1091;DHT22;534;48.704;9.122;2023-04-29T10:08:43;19.80;67.60
1091;DHT22;534;48.704;9.122;2023-04-29T10:11:11;20.00;67.30
1091;DHT22;534;48.704;9.122;2023-04-29T10:13:41;20.00;65.70
1091;DHT22;534;48.704;9.122;2023-04-29T10:16:18;19.90;66.10
1091;DHT22;534;48.704;9.122;2023-04-29T10:18:53;19.90;67.80
1091;DHT22;534;48.704;9.122;2023-04-29T10:21:22;19.90;65.90
1091;DHT22;534;48.704;9.122;2023-04-29T10:23:51;19.90;65.90
1091;DHT22;534;48.704;9.122;2023-04-29T10:26:20;19.90;67.20
1091;DHT22;534;48.704;9.122;2023-04-29T10:28:49;20.10;66.90
1091;DHT22;534;48.704;9.122;2023-04-29T10:31:19;20.30;66.40
1091;DHT22;534;48.704;9.122;2023-04-29T10:33:47;20.30;66.20
1091;DHT22;534;48.704;9.122;2023-04-29T10:36:15;20.30;64.90
1091;DHT22;534;48.704;9.122;2023-04-29T10:38:45;20.20;65.10
1091;DHT22;534;48.704;9.122;2023-04-29T10:41:18;20.40;66.80
1091;DHT22;534;48.704;9.122;2023-04-29T10:43:45;20.40;64.20
1091;DHT22;534;48.704;9.122;2023-04-29T10:46:18;20.30;63.70
1091;DHT22;534;48.704;9.122;2023-04-29T10:48:45;20.20;64.00
1091;DHT22;534;48.704;9.122;2023-04-29T10:51:12;20.10;63.20
1091;DHT22;534;48.704;9.122;2023-04-29T10:54:01;20.10;62.10
1091;DHT22;534;48.704;9.122;2023-04-29T10:56:46;19.90;63.00
1091;DHT22;534;48.704;9.122;2023-04-29T10:59:14;19.80;64.80
1091;DHT22;534;48.704;9.122;2023-04-29T11:01:44;19.80;65.20
1091;DHT22;534;48.704;9.122;2023-04-29T11:04:12;19.90;64.30
1091;DHT22;534;48.704;9.122;2023-04-29T11:06:41;20.00;62.80
1091;DHT22;534;48.704;9.122;2023-04-29T11:09:09;19.80;63.10
1091;DHT22;534;48.704;9.122;2023-04-29T11:11:44;19.70;64.40
1091;DHT22;534;48.704;9.122;2023-04-29T11:14:12;19.90;64.60
1091;DHT22;534;48.704;9.122;2023-04-29T11:16:48;20.00;64.10
1091;DHT22;534;48.704;9.122;2023-04-29T11:19:16;19.90;63.90
1091;DHT22;534;48.704;9.122;2023-04-29T11:21:44;19.90;63.30
1091;DHT22;534;48.704;9.122;2023-04-29T11:24:12;19.80;64.20
1091;DHT22;534;48.704;9.122;2023-04-29T11:26:40;19.70;64.90
1091;DHT22;534;48.704;9.122;2023-04-29T11:29:08;19.70;64.20
1091;DHT22;534;48.704;9.122;2023-04-29T11:31:35;19.80;62.70
1091;DHT22;534;48.704;9.122;2023-04-29T11:34:05;19.80;63.60
1091;DHT22;534;48.704;9.122;2023-04-29T11:36:33;19.80;63.00
1091;DHT22;534;48.704;9.122;2023-04-29T11:39:00;19.90;62.00
1091;DHT22;534;48.704;9.122;2023-04-29T11:41:28;19.80;61.70
1091;DHT22;534;48.704;9.122;2023-04-29T11:43:56;19.90;61.50
1091;DHT22;534;48.704;9.122;2023-04-29T11:46:23;20.10;61.60
1091;DHT22;534;48.704;9.122;2023-04-29T11:48:50;20.00;61.30
1091;DHT22;534;48.704;9.122;2023-04-29T11:51:18;19.90;59.90
1091;DHT22;534;48.704;9.122;2023-04-29T11:53:45;19.90;61.30
1091;DHT22;534;48.704;9.122;2023-04-29T11:56:12;20.20;61.50
1091;DHT22;534;48.704;9.122;2023-04-29T11:58:40;20.20;59.90
1091;DHT22;534;48.704;9.122;2023-04-29T12:01:07;20.20;59.40
1091;DHT22;534;48.704;9.122;2023-04-29T12:03:34;20.30;59.60
1091;DHT22;534;48.704;9.122;2023-04-29T12:06:01;20.50;58.90
1091;DHT22;534;48.704;9.122;2023-04-29T12:08:29;20.60;59.20
1091;DHT22;534;48.704;9.122;2023-04-29T12:10:59;20.70;58.40
1091;DHT22;534;48.704;9.122;2023-04-29T12:13:28;20.70;58.00
1091;DHT22;534;48.704;9.122;2023-04-29T12:15:55;20.80;57.30
1091;DHT22;534;48.704;9.122;2023-04-29T12:18:23;20.80;56.50
1091;DHT22;534;48.704;9.122;2023-04-29T12:20:52;20.80;56.90
1091;DHT22;534;48.704;9.122;2023-04-29T12:23:21;20.90;57.00
1091;DHT22;534;48.704;9.122;2023-04-29T12:25:50;21.00;57.10
1091;DHT22;534;48.704;9.122;2023-04-29T12:28:18;20.90;59.00
1091;DHT22;534;48.704;9.122;2023-04-29T12:30:45;20.90;61.00
1091;DHT22;534;48.704;9.122;2023-04-29T12:33:15;20.50;62.50
1091;DHT22;534;48.704;9.122;2023-04-29T12:35:43;20.50;62.40
1091;DHT22;534;48.704;9.122;2023-04-29T12:38:10;20.40;62.50
1091;DHT22;534;48.704;9.122;2023-04-29T12:40:39;20.40;63.20
1091;DHT22;534;48.704;9.122;2023-04-29T12:43:11;20.20;62.90
1091;DHT22;534;48.704;9.122;2023-04-29T12:45:38;20.00;63.70
1091;DHT22;534;48.704;9.122;2023-04-29T12:48:05;19.90;63.80
1091;DHT22;534;48.704;9.122;2023-04-29T12:50:33;19.80;65.00
1091;DHT22;534;48.704;9.122;2023-04-29T12:53:01;19.80;65.10
1091;DHT22;534;48.704;9.122;2023-04-29T12:55:28;19.90;64.20
1091;DHT22;534;48.704;9.122;2023-04-29T12:57:54;20.10;65.00
1091;DHT22;534;48.704;9.122;2023-04-29T13:00:23;20.40;64.90
1091;DHT22;534;48.704;9.122;2023-04-29T13:02:50;20.80;63.00
1091;DHT22;534;48.704;9.122;2023-04-29T13:05:16;21.00;62.80
1091;DHT22;534;48.704;9.122;2023-04-29T13:07:43;21.20;62.40
1091;DHT22;534;48.704;9.122;2023-04-29T13:10:10;21.30;61.90
1091;DHT22;534;48.704;9.122;2023-04-29T13:12:38;21.20;61.20
1091;DHT22;534;48.704;9.122;2023-04-29T13:15:06;21.00;61.40
1091;DHT22;534;48.704;9.122;2023-04-29T13:17:35;21.10;62.00
1091;DHT22;534;48.704;9.122;2023-04-29T13:20:02;21.20;60.80
1091;DHT22;534;48.704;9.122;2023-04-29T13:22:29;21.00;60.60
1091;DHT22;534;48.704;9.122;2023-04-29T13:24:56;20.70;61.20
1091;DHT22;534;48.704;9.122;2023-04-29T13:27:22;20.70;61.60
1091;DHT22;534;48.704;9.122;2023-04-29T13:29:49;20.60;61.40
1091;DHT22;534;48.704;9.122;2023-04-29T13:32:16;20.60;62.30
1091;DHT22;534;48.704;9.122;2023-04-29T13:34:44;20.50;62.20
1091;DHT22;534;48.704;9.122;2023-04-29T13:37:11;20.50;62.80
1091;DHT22;534;48.704;9.122;2023-04-29T13:39:37;20.50;62.90
1091;DHT22;534;48.704;9.122;2023-04-29T13:42:04;20.40;62.80
1091;DHT22;534;48.704;9.122;2023-04-29T13:44:31;20.60;62.30
1091;DHT22;534;48.704;9.122;2023-04-29T13:46:57;20.60;62.00
1091;DHT22;534;48.704;9.122;2023-04-29T13:49:25;20.50;62.40
1091;DHT22;534;48.704;9.122;2023-04-29T13:51:53;20.60;62.50
1091;DHT22;534;48.704;9.122;2023-04-29T13:54:20;20.60;62.10
1091;DHT22;534;48.704;9.122;2023-04-29T13:56:48;20.80;61.70
1091;DHT22;534;48.704;9.122;2023-04-29T13:59:14;20.70;61.70
1091;DHT22;534;48.704;9.122;2023-04-29T14:01:41;20.60;61.50
1091;DHT22;534;48.704;9.122;2023-04-29T14:04:09;20.40;62.10
1091;DHT22;534;48.704;9.122;2023-04-29T14:06:35;20.30;62.20
1091;DHT22;534;48.704;9.122;2023-04-29T14:09:03;20.20;63.20
1091;DHT22;534;48.704;9.122;2023-04-29T14:11:30;20.10;63.60
1091;DHT22;534;48.704;9.122;2023-04-29T14:14:00;20.40;63.30
1091;DHT22;534;48.704;9.122;2023-04-29T14:16:27;20.70;62.80
1091;DHT22;534;48.704;9.122;2023-04-29T14:18:54;20.80;61.80
1091;DHT22;534;48.704;9.122;2023-04-29T14:21:22;21.10;63.80
1091;DHT22;534;48.704;9.122;2023-04-29T14:23:48;21.40;60.00
1091;DHT22;534;48.704;9.122;2023-04-29T14:26:16;21.30;60.10
1091;DHT22;534;48.704;9.122;2023-04-29T14:28:43;21.40;60.70
1091;DHT22;534;48.704;9.122;2023-04-29T14:31:10;21.60;60.10
1091;DHT22;534;48.704;9.122;2023-04-29T14:33:38;21.60;59.80
1091;DHT22;534;48.704;9.122;2023-04-29T14:36:05;21.70;60.00
1091;DHT22;534;48.704;9.122;2023-04-29T14:38:32;21.80;59.10
1091;DHT22;534;48.704;9.122;2023-04-29T14:40:59;22.00;58.70
1091;DHT22;534;48.704;9.122;2023-04-29T14:43:27;21.80;58.40
1091;DHT22;534;48.704;9.122;2023-04-29T14:45:54;21.70;59.20
1091;DHT22;534;48.704;9.122;2023-04-29T14:48:21;21.50;59.90
1091;DHT22;534;48.704;9.122;2023-04-29T14:50:48;21.20;59.40
1091;DHT22;534;48.704;9.122;2023-04-29T14:53:14;21.20;60.40
1091;DHT22;534;48.704;9.122;2023-04-29T14:55:41;21.20;60.20
1091;DHT22;534;48.704;9.122;2023-04-29T14:58:08;21.10;60.40
1091;DHT22;534;48.704;9.122;2023-04-29T15:00:36;21.10;61.20
1091;DHT22;534;48.704;9.122;2023-04-29T15:03:03;21.40;60.70
1091;DHT22;534;48.704;9.122;2023-04-29T15:05:30;21.50;60.30
1091;DHT22;534;48.704;9.122;2023-04-29T15:07:57;21.50;59.70
1091;DHT22;534;48.704;9.122;2023-04-29T15:10:25;21.90;58.80
1091;DHT22;534;48.704;9.122;2023-04-29T15:12:52;22.20;58.20
1091;DHT22;534;48.704;9.122;2023-04-29T15:15:19;22.60;56.70
1091;DHT22;534;48.704;9.122;2023-04-29T15:17:47;23.40;56.40
1091;DHT22;534;48.704;9.122;2023-04-29T15:20:14;24.10;53.40
1091;DHT22;534;48.704;9.122;2023-04-29T15:22:41;24.00;53.40
1091;DHT22;534;48.704;9.122;2023-04-29T15:25:08;23.50;53.90
1091;DHT22;534;48.704;9.122;2023-04-29T15:27:35;22.80;55.40
1091;DHT22;534;48.704;9.122;2023-04-29T15:30:03;22.30;56.60
1091;DHT22;534;48.704;9.122;2023-04-29T15:32:29;21.70;58.00
1091;DHT22;534;48.704;9.122;2023-04-29T15:34:58;21.40;58.40
1091;DHT22;534;48.704;9.122;2023-04-29T15:37:25;21.10;58.40
1091;DHT22;534;48.704;9.122;2023-04-29T15:39:52;20.70;59.80
1091;DHT22;534;48.704;9.122;2023-04-29T15:42:19;20.40;60.60
1091;DHT22;534;48.704;9.122;2023-04-29T15:44:45;20.00;61.30
1091;DHT22;534;48.704;9.122;2023-04-29T15:47:12;19.80;61.30
1091;DHT22;534;48.704;9.122;2023-04-29T15:49:40;19.60;62.00
1091;DHT22;534;48.704;9.122;2023-04-29T15:52:08;19.40;63.20
1091;DHT22;534;48.704;9.122;2023-04-29T15:54:35;19.10;63.50
1091;DHT22;534;48.704;9.122;2023-04-29T15:57:02;18.80;64.40
1091;DHT22;534;48.704;9.122;2023-04-29T15:59:29;18.50;64.10
1091;DHT22;534;48.704;9.122;2023-04-29T16:01:56;18.30;65.60
1091;DHT22;534;48.704;9.122;2023-04-29T16:04:23;18.30;65.50
1091;DHT22;534;48.704;9.122;2023-04-29T16:06:51;18.30;65.40
1091;DHT22;534;48.704;9.122;2023-04-29T16:09:19;18.10;65.90
1091;DHT22;534;48.704;9.122;2023-04-29T16:11:46;17.90;66.10
1091;DHT22;534;48.704;9.122;2023-04-29T16:14:13;17.80;66.40
1091;DHT22;534;48.704;9.122;2023-04-29T16:16:40;17.90;66.70
1091;DHT22;534;48.704;9.122;2023-04-29T16:19:07;18.00;67.10
1091;DHT22;534;48.704;9.122;2023-04-29T16:21:33;17.90;67.50
1091;DHT22;534;48.704;9.122;2023-04-29T16:24:00;18.00;67.40
1091;DHT22;534;48.704;9.122;2023-04-29T16:26:28;18.10;66.70
1091;DHT22;534;48.704;9.122;2023-04-29T16:28:55;18.00;66.60
1091;DHT22;534;48.704;9.122;2023-04-29T16:31:22;17.90;67.20
1091;DHT22;534;48.704;9.122;2023-04-29T16:33:51;17.90;67.50
1091;DHT22;534;48.704;9.122;2023-04-29T16:36:21;17.70;67.90
1091;DHT22;534;48.704;9.122;2023-04-29T16:38:48;17.50;68.40
1091;DHT22;534;48.704;9.122;2023-04-29T16:41:15;17.40;68.80
1091;DHT22;534;48.704;9.122;2023-04-29T16:43:43;17.40;68.80
1091;DHT22;534;48.704;9.122;2023-04-29T16:46:10;17.30;68.70
1091;DHT22;534;48.704;9.122;2023-04-29T16:48:37;17.40;68.90
1091;DHT22;534;48.704;9.122;2023-04-29T16:51:04;17.20;69.00
1091;DHT22;534;48.704;9.122;2023-04-29T16:53:30;17.20;69.30
1091;DHT22;534;48.704;9.122;2023-04-29T16:55:57;17.10;69.40
1091;DHT22;534;48.704;9.122;2023-04-29T16:58:24;17.10;69.10
1091;DHT22;534;48.704;9.122;2023-04-29T17:00:52;17.20;69.10
1091;DHT22;534;48.704;9.122;2023-04-29T17:03:19;17.20;68.60
1091;DHT22;534;48.704;9.122;2023-04-29T17:05:46;17.10;69.00
1091;DHT22;534;48.704;9.122;2023-04-29T17:08:13;17.10;69.10
1091;DHT22;534;48.704;9.122;2023-04-29T17:10:40;17.00;69.00
1091;DHT22;534;48.704;9.122;2023-04-29T17:13:06;16.90;69.50
1091;DHT22;534;48.704;9.122;2023-04-29T17:15:33;16.80;69.90
1091;DHT22;534;48.704;9.122;2023-04-29T17:18:01;16.70;70.10
1091;DHT22;534;48.704;9.122;2023-04-29T17:20:28;16.70;70.30
1091;DHT22;534;48.704;9.122;2023-04-29T17:22:54;16.60;71.00
1091;DHT22;534;48.704;9.122;2023-04-29T17:25:21;16.60;71.00
1091;DHT22;534;48.704;9.122;2023-04-29T17:27:48;16.60;71.00
1091;DHT22;534;48.704;9.122;2023-04-29T17:30:15;16.50;70.90
1091;DHT22;534;48.704;9.122;2023-04-29T17:32:41;16.60;70.80
1091;DHT22;534;48.704;9.122;2023-04-29T17:35:10;16.40;71.40
1091;DHT22;534;48.704;9.122;2023-04-29T17:37:37;16.50;71.40
1091;DHT22;534;48.704;9.122;2023-04-29T17:40:04;16.40;70.90
1091;DHT22;534;48.704;9.122;2023-04-29T17:42:32;16.50;70.70
1091;DHT22;534;48.704;9.122;2023-04-29T17:44:59;16.40;71.00
1091;DHT22;534;48.704;9.122;2023-04-29T17:47:25;16.40;70.90
1091;DHT22;534;48.704;9.122;2023-04-29T17:49:52;16.30;71.50
1091;DHT22;534;48.704;9.122;2023-04-29T17:52:20;16.30;71.20
1091;DHT22;534;48.704;9.122;2023-04-29T17:54:47;16.40;71.50
1091;DHT22;534;48.704;9.122;2023-04-29T17:57:14;16.40;71.70
1091;DHT22;534;48.704;9.122;2023-04-29T17:59:40;16.50;71.40
1091;DHT22;534;48.704;9.122;2023-04-29T18:02:07;16.60;70.90
1091;DHT22;534;48.704;9.122;2023-04-29T18:04:34;16.40;70.90
1091;DHT22;534;48.704;9.122;2023-04-29T18:07:01;16.30;71.20
1091;DHT22;534;48.704;9.122;2023-04-29T18:09:29;16.30;71.30
1091;DHT22;534;48.704;9.122;2023-04-29T18:11:56;16.40;71.20
1091;DHT22;534;48.704;9.122;2023-04-29T18:14:23;16.40;71.40
1091;DHT22;534;48.704;9.122;2023-04-29T18:16:52;16.30;71.30
1091;DHT22;534;48.704;9.122;2023-04-29T18:19:18;16.40;71.30
1091;DHT22;534;48.704;9.122;2023-04-29T18:21:45;16.50;71.20
1091;DHT22;534;48.704;9.122;2023-04-29T18:24:11;16.50;70.90
1091;DHT22;534;48.704;9.122;2023-04-29T18:26:39;16.50;71.10
1091;DHT22;534;48.704;9.122;2023-04-29T18:29:06;16.60;71.00
1091;DHT22;534;48.704;9.122;2023-04-29T18:31:34;16.60;70.90
1091;DHT22;534;48.704;9.122;2023-04-29T18:34:00;16.60;70.50
1091;DHT22;534;48.704;9.122;2023-04-29T18:36:27;16.70;70.60
1091;DHT22;534;48.704;9.122;2023-04-29T18:38:54;16.70;70.30
1091;DHT22;534;48.704;9.122;2023-04-29T18:41:21;16.80;70.20
1091;DHT22;534;48.704;9.122;2023-04-29T18:43:49;16.80;70.20
1091;DHT22;534;48.704;9.122;2023-04-29T18:46:16;16.80;70.00
1091;DHT22;534;48.704;9.122;2023-04-29T18:48:42;16.70;70.20
1091;DHT22;534;48.704;9.122;2023-04-29T18:51:09;16.80;70.00
1091;DHT22;534;48.704;9.122;2023-04-29T18:53:36;16.70;69.70
1091;DHT22;534;48.704;9.122;2023-04-29T18:56:03;16.50;70.50
1091;DHT22;534;48.704;9.122;2023-04-29T18:58:29;16.50;70.70
1091;DHT22;534;48.704;9.122;2023-04-29T19:00:57;16.60;70.60
1091;DHT22;534;48.704;9.122;2023-04-29T19:03:26;16.60;70.50
1091;DHT22;534;48.704;9.122;2023-04-29T19:05:53;16.60;70.50
1091;DHT22;534;48.704;9.122;2023-04-29T19:08:20;16.50;70.70
1091;DHT22;534;48.704;9.122;2023-04-29T19:10:46;16.40;70.90
1091;DHT22;534;48.704;9.122;2023-04-29T19:13:13;16.30;70.80
1091;DHT22;534;48.704;9.122;2023-04-29T19:15:40;16.20;71.20
1091;DHT22;534;48.704;9.122;2023-04-29T19:18:08;16.20;71.30
1091;DHT22;534;48.704;9.122;2023-04-29T19:20:35;16.10;71.50
1091;DHT22;534;48.704;9.122;2023-04-29T19:23:01;16.10;71.50
1091;DHT22;534;48.704;9.122;2023-04-29T19:25:28;16.00;71.70
1091;DHT22;534;48.704;9.122;2023-04-29T19:27:56;15.80;72.20
1091;DHT22;534;48.704;9.122;2023-04-29T19:30:22;15.80;72.30
1091;DHT22;534;48.704;9.122;2023-04-29T19:32:49;15.90;72.20
1091;DHT22;534;48.704;9.122;2023-04-29T19:35:17;15.80;72.50
1091;DHT22;534;48.704;9.122;2023-04-29T19:37:44;15.80;72.40
1091;DHT22;534;48.704;9.122;2023-04-29T19:40:11;15.80;72.50
1091;DHT22;534;48.704;9.122;2023-04-29T19:42:38;15.80;72.50
1091;DHT22;534;48.704;9.122;2023-04-29T19:45:07;15.80;72.50
1091;DHT22;534;48.704;9.122;2023-04-29T19:47:34;15.70;72.60
1091;DHT22;534;48.704;9.122;2023-04-29T19:50:01;15.70;72.70
1091;DHT22;534;48.704;9.122;2023-04-29T19:52:29;15.60;72.90
1091;DHT22;534;48.704;9.122;2023-04-29T19:54:56;15.60;73.00
1091;DHT22;534;48.704;9.122;2023-04-29T19:57:23;15.80;72.60
1091;DHT22;534;48.704;9.122;2023-04-29T19:59:50;15.80;72.60
1091;DHT22;534;48.704;9.122;2023-04-29T20:02:17;15.80;72.30
1091;DHT22;534;48.704;9.122;2023-04-29T20:04:44;15.70;72.30
1091;DHT22;534;48.704;9.122;2023-04-29T20:07:10;15.70;72.40
1091;DHT22;534;48.704;9.122;2023-04-29T20:09:38;15.60;72.60
1091;DHT22;534;48.704;9.122;2023-04-29T20:12:06;15.60;72.50
1091;DHT22;534;48.704;9.122;2023-04-29T20:14:32;15.60;72.70
1091;DHT22;534;48.704;9.122;2023-04-29T20:16:59;15.70;72.60
1091;DHT22;534;48.704;9.122;2023-04-29T20:19:26;15.60;72.60
1091;DHT22;534;48.704;9.122;2023-04-29T20:21:52;15.60;72.80